Flight Track Log - Related Links

Times and Time Zones

All times are in EDT time to prevent confusion due to time zone crossing. See the N534QS flight status page for this flight to view local times or setup timezone preferences in your user account.

Time Position Orientation Groundspeed Altitude Reporting Facility
EDT Latitude Longitude Course Direction KTS MPH feet Rate Location/Type
Sun 06:44:22 PM 40.8333 -72.6500 311° West 196 226 1,300  Level New TRACON
Sun 06:45:22 PM 40.8667 -72.7000 311° West 230 265 2,600 2,150 Climbing New TRACON
Sun 06:46:22 PM 40.9333 -72.7167 349° North 246 283 5,600 2,810 Climbing New TRACON
Sun 06:47:28 PM 41.0167 -72.7833 329° Northwest 279 321 8,500 2,250 Climbing New TRACON
Sun 06:48:22 PM 41.0667 -72.8500 315° West 308 354 10,100 800 Climbing New TRACON
Sun 06:50:43 PM 41.1503 -73.0825 296° West 301 346 11,100 925 Climbing Boston Center
Sun 06:51:43 PM 41.1619 -73.1900 278° West 292 336 13,200 1,850 Climbing Boston Center
Sun 06:52:43 PM 41.2261 -73.2653 319° Northwest 292 336 14,800 1,650 Climbing Boston Center
Sun 06:53:43 PM 41.3225 -73.2003 27° Northeast 254 292 16,500 1,350 Climbing Boston Center
Sun 06:54:43 PM 41.3981 -73.0986 45° Northeast 378 435 17,500 1,450 Climbing Boston Center
Sun 06:55:43 PM 41.4719 -72.9361 59° Northeast 425 489 19,400 2,000 Climbing Boston Center
Sun 06:56:43 PM 41.5350 -72.7894 60° Northeast 449 517 21,500 1,600 Climbing Boston Center
Sun 06:57:43 PM 41.5936 -72.6539 60° Northeast 449 517 22,600 1,250 Climbing Boston Center
Sun 06:58:43 PM 41.6647 -72.4928 59° Northeast 477 549 24,000 1,350 Climbing Boston Center
Sun 06:59:43 PM 41.7375 -72.3289 59° Northeast 499 574 25,300 1,400 Climbing Boston Center
Sun 07:00:43 PM 41.8144 -72.1644 58° Northeast 512 589 26,800 1,250 Climbing Boston Center
Sun 07:01:43 PM 41.9203 -72.0189 46° Northeast 524 603 27,800 1,100 Climbing Boston Center
Sun 07:03:00 PM 42.0678 -71.8817 48° Northeast  Level FlightAware
Sun 07:03:43 PM 42.1564 -71.7456 48° Northeast 546 628 30,100  Level Boston Center
Sun 07:04:43 PM 42.2744 -71.6094 40° Northeast 552 635 31,800 1,650 Climbing Boston Center
Sun 07:05:43 PM 42.3983 -71.4731 39° Northeast 563 648 33,400 1,550 Climbing Boston Center
Sun 07:06:43 PM 42.5158 -71.3331 41° Northeast 563 648 34,900 1,450 Climbing Boston Center
Sun 07:07:43 PM 42.6333 -71.1928 41° Northeast 563 648 36,300 1,350 Climbing Boston Center
Sun 07:08:43 PM 42.7483 -71.0547 41° Northeast 557 641 37,600 1,200 Climbing Boston Center
Sun 07:09:43 PM 42.8386 -70.9450 42° Northeast 557 641 38,700 1,200 Climbing Boston Center
Sun 07:10:43 PM 42.9761 -70.7772 42° Northeast 557 641 40,000 1,100 Climbing Boston Center
Sun 07:11:43 PM 43.0906 -70.6375 42° Northeast 552 635 40,900 500 Climbing Boston Center
Sun 07:12:43 PM 43.2050 -70.4975 42° Northeast 552 635 41,000 50 Climbing Boston Center
Sun 07:13:43 PM 43.3294 -70.3422 42° Northeast 552 635 41,000  Level Boston Center
Sun 07:14:43 PM 43.4456 -70.2008 41° Northeast 557 641 41,000  Level Boston Center
Sun 07:15:43 PM 43.5389 -70.0800 43° Northeast 557 641 41,000  Level Boston Center
Sun 07:16:43 PM 43.6728 -69.9111 42° Northeast 552 635 41,000  Level Boston Center
Sun 07:17:43 PM 43.7883 -69.7683 42° Northeast 558 642 41,000  Level Boston Center
Sun 07:18:43 PM 43.9039 -69.6219 42° Northeast 558 642 41,000  Level Boston Center
Sun 07:19:43 PM 44.0147 -69.4808 42° Northeast 553 636 41,000  Level Boston Center
Sun 07:20:43 PM 44.1297 -69.3364 42° Northeast 553 636 41,000  Level Boston Center
Sun 07:21:43 PM 44.2444 -69.1883 43° Northeast 553 636 41,000  Level Boston Center
Sun 07:22:43 PM 44.3592 -69.0425 42° Northeast 553 636 41,000  Level Boston Center
Sun 07:23:43 PM 44.4714 -68.8964 43° Northeast 553 636 41,000  Level Boston Center
Sun 07:24:43 PM 44.5836 -68.7497 43° Northeast 553 636 41,000  Level Boston Center
Sun 07:25:43 PM 44.6956 -68.6053 43° Northeast 553 636 41,000  Level Boston Center
Sun 07:26:43 PM 44.8092 -68.4544 43° Northeast 553 636 41,000  Level Boston Center
Sun 07:27:43 PM 44.9228 -68.3031 43° Northeast 558 642 41,000  Level Boston Center
Sun 07:28:43 PM 45.0361 -68.1539 43° Northeast 558 642 41,000  Level Boston Center
Sun 07:29:43 PM 45.1492 -68.0014 44° Northeast 558 642 41,000  Level Boston Center
Sun 07:30:43 PM 45.2622 -67.8508 43° Northeast 558 642 41,000  Level Boston Center
Sun 07:31:43 PM 45.3725 -67.6944 45° Northeast 558 642 41,000  Level Boston Center
Sun 07:32:43 PM 45.4892 -67.5425 42° Northeast 558 642 41,000  Level Boston Center
Sun 07:34:10 PM 45.6333 -67.3167 48° Northeast 560 644 41,000  Level Moncton Center
Sun 07:35:10 PM 45.7500 -67.1833 39° Northeast 560 644 41,000  Level Moncton Center
Sun 07:36:10 PM 45.8833 -67.0167 41° Northeast 560 644 41,000  Level Moncton Center
Sun 07:37:10 PM 45.9833 -66.8833 43° Northeast 560 644 41,000  Level Moncton Center
Sun 07:38:10 PM 46.1000 -66.7167 45° Northeast 560 644 41,000  Level Moncton Center
Sun 07:39:10 PM 46.2000 -66.5500 49° Northeast 560 644 41,000  Level Moncton Center
Sun 07:40:10 PM 46.3333 -66.4167 35° Northeast 560 644 41,000  Level Moncton Center
Sun 07:41:10 PM 46.4500 -66.2500 45° Northeast 570 656 41,000  Level Moncton Center
Sun 07:42:10 PM 46.5500 -66.0833 49° Northeast 570 656 41,000  Level Moncton Center
Sun 07:43:10 PM 46.6667 -65.9167 44° Northeast 560 644 41,000  Level Moncton Center
Sun 07:44:10 PM 46.7667 -65.7667 46° Northeast 570 656 41,000  Level Moncton Center
Sun 07:45:10 PM 46.8833 -65.6000 44° Northeast 570 656 41,000  Level Moncton Center
Sun 07:46:10 PM 47.0167 -65.4333 40° Northeast 570 656 41,000  Level Moncton Center
Sun 07:47:10 PM 47.1167 -65.2833 46° Northeast 570 656 41,000  Level Moncton Center
Sun 07:48:10 PM 47.2333 -65.1167 44° Northeast 570 656 41,000  Level Moncton Center
Sun 07:49:10 PM 47.3500 -64.9333 47° Northeast 570 656 41,000  Level Moncton Center
Sun 07:50:10 PM 47.4667 -64.7667 44° Northeast 570 656 41,000  Level Moncton Center
Sun 07:51:11 PM 47.5833 -64.6000 44° Northeast 580 667 41,000  Level Gander Center
Sun 07:52:11 PM 47.6833 -64.4667 42° Northeast 570 656 41,000  Level Gander Center
Sun 07:53:11 PM 47.7833 -64.2667 53° Northeast 570 656 41,000  Level Gander Center
Sun 07:54:11 PM 47.9167 -64.1167 37° Northeast 580 667 41,000  Level Gander Center
Sun 07:55:11 PM 48.0333 -63.9333 46° Northeast 580 667 41,000  Level Gander Center
Sun 07:56:11 PM 48.1333 -63.7667 48° Northeast 570 656 41,000  Level Gander Center
Sun 07:57:11 PM 48.2333 -63.6167 45° Northeast 580 667 41,000  Level Gander Center
Sun 07:58:10 PM 48.3500 -63.4333 46° Northeast 570 656 41,000  Level Moncton Center
Sun 07:59:10 PM 48.4667 -63.2333 49° Northeast 580 667 41,000  Level Moncton Center
Sun 08:00:09 PM 48.5833 -63.0833 40° Northeast 580 667 41,000  Level Moncton Center
Sun 08:00:10 PM 48.5833 -63.0833 40° Northeast 590 679 41,000  Level Gander Center
Sun 08:01:09 PM 48.7000 -62.9000 46° Northeast 570 656 41,000  Level Moncton Center
Sun 08:02:10 PM 48.7833 -62.7333 53° Northeast 560 644 41,000  Level Gander Center
Sun 08:03:09 PM 48.9000 -62.5333 48° Northeast 580 667 41,000  Level Moncton Center
Sun 08:04:09 PM 49.0167 -62.3500 46° Northeast 570 656 41,000  Level Moncton Center
Sun 08:05:10 PM 49.1333 -62.1833 43° Northeast 580 667 41,000  Level Gander Center
Sun 08:06:09 PM 49.2500 -62.0167 43° Northeast 570 656 41,000  Level Moncton Center
Sun 08:07:10 PM 49.3500 -61.8167 52° Northeast 570 656 41,000  Level Gander Center
Sun 08:08:10 PM 49.4500 -61.6500 47° Northeast 570 656 41,000  Level Gander Center
Sun 08:09:10 PM 49.5667 -61.4833 43° Northeast 570 656 41,000  Level Gander Center
Sun 08:10:10 PM 49.6667 -61.2833 52° Northeast 560 644 41,000  Level Gander Center
Sun 08:11:10 PM 49.7833 -61.1333 40° Northeast 570 656 41,000  Level Gander Center
Sun 08:12:10 PM 49.8833 -60.9167 54° Northeast 570 656 41,000  Level Gander Center
Sun 08:13:10 PM 49.9833 -60.7667 44° Northeast 560 644 41,000  Level Gander Center
Sun 08:14:09 PM 50.1000 -60.5667 48° Northeast 560 644 41,000  Level Moncton Center
Sun 08:15:09 PM 50.2000 -60.4000 47° Northeast 560 644 41,000  Level Moncton Center
Sun 08:16:09 PM 50.3000 -60.2000 52° Northeast 550 633 41,000  Level Moncton Center
Sun 08:17:10 PM 50.4167 -60.0167 45° Northeast 570 656 41,000  Level Gander Center
Sun 08:18:10 PM 50.5167 -59.8333 49° Northeast 550 633 41,000  Level Gander Center
Sun 08:19:10 PM 50.6167 -59.6500 49° Northeast 560 644 41,000  Level Gander Center
Sun 08:20:10 PM 50.7167 -59.4833 47° Northeast 570 656 41,000  Level Gander Center
Sun 08:21:10 PM 50.8167 -59.2667 54° Northeast 560 644 41,000  Level Gander Center
Sun 08:22:10 PM 50.9167 -59.0833 49° Northeast 560 644 41,000  Level Gander Center
Sun 08:23:10 PM 51.0000 -58.8833 56° Northeast 560 644 41,000  Level Gander Center
Sun 08:24:10 PM 51.1167 -58.7000 45° Northeast 560 644 41,000  Level Gander Center
Sun 08:25:10 PM 51.2000 -58.4833 58° Northeast 570 656 41,000  Level Gander Center
Sun 08:26:10 PM 51.2833 -58.2833 56° Northeast 570 656 41,000  Level Gander Center
Sun 08:27:10 PM 51.3833 -58.0667 53° Northeast 570 656 41,000  Level Gander Center
Sun 08:28:10 PM 51.4667 -57.8667 56° Northeast 570 656 41,000  Level Gander Center
Sun 08:29:10 PM 51.5667 -57.6833 49° Northeast 560 644 41,000  Level Gander Center
Sun 08:30:10 PM 51.6667 -57.4833 51° Northeast 560 644 41,000  Level Gander Center
Sun 08:31:09 PM 51.7500 -57.2500 60° Northeast 570 656 41,000  Level Moncton Center
Sun 08:31:10 PM 51.7500 -57.2500 60° Northeast 580 667 41,000  Level Gander Center
Sun 08:32:09 PM 51.8500 -57.0167 55° Northeast 570 656 41,000  Level Moncton Center
Sun 08:33:09 PM 51.9333 -56.8167 56° Northeast 570 656 41,000  Level Moncton Center
Sun 08:34:10 PM 52.0333 -56.6000 53° Northeast 570 656 41,000  Level Gander Center
Sun 08:35:10 PM 52.1167 -56.4000 56° Northeast 580 667 41,000  Level Gander Center
Sun 08:36:10 PM 52.2167 -56.1833 53° Northeast 580 667 41,000  Level Gander Center
Sun 08:37:10 PM 52.3000 -55.9667 58° Northeast 580 667 41,000  Level Gander Center
Sun 08:38:10 PM 52.4000 -55.7500 53° Northeast 580 667 41,000  Level Gander Center
Sun 08:39:10 PM 52.4667 -55.5333 63° Northeast 570 656 41,000  Level Gander Center
Sun 08:40:10 PM 52.5667 -55.3333 51° Northeast 570 656 41,000  Level Gander Center
Sun 08:41:10 PM 52.6500 -55.1000 59° Northeast 570 656 41,000  Level Gander Center
Sun 08:42:10 PM 52.7333 -54.8667 59° Northeast 570 656 41,000  Level Gander Center
Sun 08:43:10 PM 52.8333 -54.6667 50° Northeast 570 656 41,000  Level Gander Center
Sun 08:44:10 PM 52.9167 -54.4333 59° Northeast 580 667 41,000  Level Gander Center
Sun 08:45:10 PM 53.0000 -54.2167 57° Northeast 570 656 41,000  Level Gander Center
Sun 08:46:10 PM 53.0833 -53.9833 59° Northeast 580 667 41,000  Level Gander Center
Sun 08:47:10 PM 53.1500 -53.7667 63° Northeast 570 656 41,000  Level Gander Center
Sun 08:48:10 PM 53.1833 -53.5167 77° East 570 656 41,000  Level Gander Center
Sun 08:49:10 PM 53.2667 -53.2833 59° Northeast 580 667 41,000  Level Gander Center
Sun 08:50:10 PM 53.3167 -53.0167 72° East 580 667 41,000  Level Gander Center
Sun 08:51:10 PM 53.3667 -52.7833 70° East 580 667 41,000  Level Gander Center
Sun 08:52:10 PM 53.4333 -52.5333 66° East 570 656 41,000  Level Gander Center
Sun 08:53:10 PM 53.4833 -52.2833 71° East 570 656 41,000  Level Gander Center
Sun 08:54:10 PM 53.5500 -52.0333 66° East 570 656 41,000  Level Gander Center
Sun 08:55:10 PM 53.5833 -51.7667 78° East 570 656 41,000  Level Gander Center
Sun 08:56:10 PM 53.6333 -51.5333 70° East 570 656 41,000  Level Gander Center
Sun 08:57:10 PM 53.7167 -51.2833 61° Northeast 570 656 41,000  Level Gander Center
Sun 08:58:10 PM 53.7500 -51.0167 78° East 580 667 41,000  Level Gander Center
Sun 08:59:10 PM 53.8167 -50.7833 64° Northeast 570 656 41,000  Level Gander Center
Sun 09:00:10 PM 53.8500 -50.5167 78° East 570 656 41,000  Level Gander Center
Sun 09:02:10 PM 53.9833 -50.0167 65° Northeast 570 656 41,000  Level Gander Center
Sun 09:03:10 PM 54.0167 -49.7500 78° East 580 667 41,000  Level Gander Center
Sun 09:05:00 PM 54.1011 -49.4536 64° Northeast  Level FlightAware
Sun 09:12:00 PM 54.4952 -47.8967 68° East  Level FlightAware
Sun 09:13:00 PM 54.5471 -47.6698 68° East  Level FlightAware
Sun 09:14:00 PM 54.5983 -47.4423 69° East  Level FlightAware
Sun 09:15:00 PM 54.6490 -47.2141 69° East  Level FlightAware
Sun 09:16:00 PM 54.6992 -46.9853 69° East  Level FlightAware
Sun 09:17:00 PM 54.7491 -46.7560 69° East  Level FlightAware
Sun 09:18:00 PM 54.7984 -46.5261 69° East  Level FlightAware
Sun 09:19:00 PM 54.8474 -46.2957 70° East  Level FlightAware
Sun 09:20:00 PM 54.8959 -46.0647 70° East  Level FlightAware
Sun 09:21:00 PM 54.9440 -45.8331 70° East  Level FlightAware
Sun 09:22:00 PM 54.9916 -45.6010 70° East  Level FlightAware
Sun 09:23:00 PM 55.0388 -45.3684 70° East  Level FlightAware
Sun 09:24:00 PM 55.0856 -45.1352 71° East  Level FlightAware
Sun 09:25:00 PM 55.1319 -44.9014 71° East  Level FlightAware
Sun 09:26:00 PM 55.1777 -44.6671 71° East  Level FlightAware
Sun 09:27:00 PM 55.2231 -44.4323 71° East  Level FlightAware
Sun 09:28:00 PM 55.2681 -44.1969 71° East  Level FlightAware
Sun 09:29:00 PM 55.3126 -43.9610 72° East  Level FlightAware
Sun 09:30:00 PM 55.3573 -43.7250 71° East  Level FlightAware
Sun 09:31:00 PM 55.4020 -43.4888 71° East  Level FlightAware
Sun 09:32:00 PM 55.4464 -43.2520 72° East  Level FlightAware
Sun 09:33:00 PM 55.4902 -43.0146 72° East  Level FlightAware
Sun 09:34:00 PM 55.5336 -42.7768 72° East  Level FlightAware
Sun 09:35:00 PM 55.5766 -42.5384 72° East  Level FlightAware
Sun 09:36:00 PM 55.6191 -42.2995 72° East  Level FlightAware
Sun 09:37:00 PM 55.6611 -42.0601 73° East  Level FlightAware
Sun 09:38:00 PM 55.7026 -41.8202 73° East  Level FlightAware
Sun 09:39:00 PM 55.7437 -41.5798 73° East  Level FlightAware
Sun 09:40:00 PM 55.7843 -41.3389 73° East  Level FlightAware
Sun 09:41:00 PM 55.8245 -41.0975 73° East  Level FlightAware
Sun 09:42:00 PM 55.8641 -40.8555 74° East  Level FlightAware
Sun 09:43:00 PM 55.9033 -40.6131 74° East  Level FlightAware
Sun 09:44:00 PM 55.9421 -40.3702 74° East  Level FlightAware
Sun 09:45:00 PM 55.9803 -40.1269 74° East  Level FlightAware
Sun 09:46:00 PM 56.0279 -39.8893 66° East  Level FlightAware
Sun 09:47:00 PM 56.0857 -39.6581 66° East  Level FlightAware
Sun 09:48:00 PM 56.1431 -39.4261 66° East  Level FlightAware
Sun 09:49:00 PM 56.2001 -39.1934 66° East  Level FlightAware
Sun 09:50:00 PM 56.2566 -38.9601 66° East  Level FlightAware
Sun 09:51:00 PM 56.3127 -38.7260 67° East  Level FlightAware
Sun 09:52:00 PM 56.3684 -38.4913 67° East  Level FlightAware
Sun 09:53:00 PM 56.4236 -38.2559 67° East  Level FlightAware
Sun 09:54:00 PM 56.4783 -38.0198 67° East  Level FlightAware
Sun 09:55:00 PM 56.5326 -37.7831 67° East  Level FlightAware
Sun 09:56:00 PM 56.5865 -37.5456 68° East  Level FlightAware
Sun 09:57:00 PM 56.6399 -37.3075 68° East  Level FlightAware
Sun 09:58:00 PM 56.6928 -37.0687 68° East  Level FlightAware
Sun 09:59:00 PM 56.7453 -36.8292 68° East  Level FlightAware
Sun 10:00:00 PM 56.7973 -36.5891 68° East  Level FlightAware
Sun 10:01:00 PM 56.8489 -36.3483 69° East  Level FlightAware
Sun 10:02:00 PM 56.9000 -36.1068 69° East  Level FlightAware
Sun 10:03:00 PM 56.9506 -35.8647 69° East  Level FlightAware
Sun 10:04:00 PM 57.0008 -35.6220 69° East  Level FlightAware
Sun 10:05:00 PM 57.0505 -35.3786 69° East  Level FlightAware
Sun 10:06:00 PM 57.0997 -35.1345 70° East  Level FlightAware
Sun 10:07:00 PM 57.1484 -34.8898 70° East  Level FlightAware
Sun 10:08:00 PM 57.1967 -34.6444 70° East  Level FlightAware
Sun 10:09:00 PM 57.2445 -34.3984 70° East  Level FlightAware
Sun 10:10:00 PM 57.2918 -34.1518 70° East  Level FlightAware
Sun 10:11:00 PM 57.3386 -33.9045 71° East  Level FlightAware
Sun 10:12:00 PM 57.3849 -33.6566 71° East  Level FlightAware
Sun 10:13:00 PM 57.4308 -33.4081 71° East  Level FlightAware
Sun 10:14:00 PM 57.4761 -33.1590 71° East  Level FlightAware
Sun 10:15:00 PM 57.5210 -32.9092 71° East  Level FlightAware
Sun 10:16:00 PM 57.5654 -32.6588 72° East  Level FlightAware
Sun 10:17:00 PM 57.6092 -32.4079 72° East  Level FlightAware
Sun 10:18:00 PM 57.6526 -32.1563 72° East  Level FlightAware
Sun 10:19:00 PM 57.6955 -31.9041 72° East  Level FlightAware
Sun 10:20:00 PM 57.7379 -31.6513 72° East  Level FlightAware
Sun 10:21:00 PM 57.7797 -31.3980 73° East  Level FlightAware
Sun 10:22:00 PM 57.8211 -31.1440 73° East  Level FlightAware
Sun 10:23:00 PM 57.8619 -30.8895 73° East  Level FlightAware
Sun 10:24:00 PM 57.9023 -30.6344 73° East  Level FlightAware
Sun 10:25:00 PM 57.9421 -30.3787 74° East  Level FlightAware
Sun 10:26:00 PM 57.9814 -30.1225 74° East  Level FlightAware
Sun 10:27:00 PM 58.0192 -29.8652 75° East  Level FlightAware
Sun 10:28:00 PM 58.0554 -29.6068 75° East  Level FlightAware
Sun 10:29:00 PM 58.0912 -29.3479 75° East  Level FlightAware
Sun 10:30:00 PM 58.1264 -29.0885 75° East  Level FlightAware
Sun 10:31:00 PM 58.1611 -28.8286 76° East  Level FlightAware
Sun 10:32:00 PM 58.1952 -28.5682 76° East  Level FlightAware
Sun 10:33:00 PM 58.2289 -28.3073 76° East  Level FlightAware
Sun 10:34:00 PM 58.2619 -28.0459 76° East  Level FlightAware
Sun 10:35:00 PM 58.2945 -27.7840 77° East  Level FlightAware
Sun 10:36:00 PM 58.3265 -27.5216 77° East  Level FlightAware
Sun 10:37:00 PM 58.3580 -27.2588 77° East  Level FlightAware
Sun 10:38:00 PM 58.3890 -26.9954 77° East  Level FlightAware
Sun 10:39:00 PM 58.4194 -26.7317 77° East  Level FlightAware
Sun 10:40:00 PM 58.4492 -26.4675 78° East  Level FlightAware
Sun 10:41:00 PM 58.4785 -26.2028 78° East  Level FlightAware
Sun 10:42:00 PM 58.5073 -25.9377 78° East  Level FlightAware
Sun 10:43:00 PM 58.5355 -25.6722 78° East  Level FlightAware
Sun 10:44:00 PM 58.5632 -25.4062 79° East  Level FlightAware
Sun 10:45:00 PM 58.5903 -25.1399 79° East  Level FlightAware
Sun 10:46:00 PM 58.6169 -24.8731 79° East  Level FlightAware
Sun 10:47:00 PM 58.6429 -24.6059 79° East  Level FlightAware
Sun 10:48:00 PM 58.6684 -24.3383 80° East  Level FlightAware
Sun 10:49:00 PM 58.6933 -24.0704 80° East  Level FlightAware
Sun 10:50:00 PM 58.7177 -23.8020 80° East  Level FlightAware
Sun 10:51:00 PM 58.7415 -23.5333 80° East  Level FlightAware
Sun 10:52:00 PM 58.7647 -23.2642 80° East  Level FlightAware
Sun 10:53:00 PM 58.7874 -22.9948 81° East  Level FlightAware
Sun 10:54:00 PM 58.8095 -22.7250 81° East  Level FlightAware
Sun 10:55:00 PM 58.8310 -22.4549 81° East  Level FlightAware
Sun 10:56:00 PM 58.8520 -22.1844 81° East  Level FlightAware
Sun 10:57:00 PM 58.8724 -21.9137 82° East  Level FlightAware
Sun 10:58:00 PM 58.8923 -21.6426 82° East  Level FlightAware
Sun 10:59:00 PM 58.9115 -21.3712 82° East  Level FlightAware
Sun 11:00:00 PM 58.9303 -21.0995 82° East  Level FlightAware
Sun 11:01:00 PM 58.9484 -20.8275 83° East  Level FlightAware
Sun 11:02:00 PM 58.9660 -20.5552 83° East  Level FlightAware
Sun 11:03:00 PM 58.9830 -20.2827 83° East  Level FlightAware
Sun 11:04:00 PM 58.9994 -20.0099 83° East  Level FlightAware
Sun 11:05:00 PM 59.0309 -19.7420 77° East  Level FlightAware
Sun 11:06:00 PM 59.0625 -19.4738 77° East  Level FlightAware
Sun 11:07:00 PM 59.0934 -19.2052 77° East  Level FlightAware
Sun 11:08:00 PM 59.1239 -18.9360 77° East  Level FlightAware
Sun 11:09:00 PM 59.1538 -18.6664 78° East  Level FlightAware
Sun 11:10:00 PM 59.1831 -18.3963 78° East  Level FlightAware
Sun 11:11:00 PM 59.2118 -18.1257 78° East  Level FlightAware
Sun 11:12:00 PM 59.2400 -17.8547 78° East  Level FlightAware
Sun 11:13:00 PM 59.2676 -17.5832 79° East  Level FlightAware
Sun 11:14:00 PM 59.2947 -17.3113 79° East  Level FlightAware
Sun 11:15:00 PM 59.3212 -17.0390 79° East  Level FlightAware
Sun 11:16:00 PM 59.3471 -16.7663 79° East  Level FlightAware
Sun 11:17:00 PM 59.3724 -16.4931 80° East  Level FlightAware
Sun 11:18:00 PM 59.3972 -16.2196 80° East  Level FlightAware
Sun 11:19:00 PM 59.4214 -15.9456 80° East  Level FlightAware
Sun 11:20:00 PM 59.4451 -15.6713 80° East  Level FlightAware
Sun 11:21:00 PM 59.4681 -15.3966 81° East  Level FlightAware
Sun 11:22:00 PM 59.4906 -15.1215 81° East  Level FlightAware
Sun 11:23:00 PM 59.5125 -14.8461 81° East  Level FlightAware
Sun 11:24:00 PM 59.5338 -14.5703 81° East  Level FlightAware
Sun 11:25:00 PM 59.5546 -14.2941 81° East  Level FlightAware
Sun 11:26:00 PM 59.5747 -14.0176 82° East  Level FlightAware
Sun 11:27:00 PM 59.5943 -13.7408 82° East  Level FlightAware
Sun 11:28:00 PM 59.6133 -13.4637 82° East  Level FlightAware
Sun 11:29:00 PM 59.6317 -13.1863 82° East  Level FlightAware
Sun 11:30:00 PM 59.6495 -12.9086 83° East  Level FlightAware
Sun 11:31:00 PM 59.6667 -12.6305 83° East  Level FlightAware
Sun 11:32:00 PM 59.6834 -12.3522 83° East  Level FlightAware
Sun 11:33:00 PM 59.6994 -12.0737 83° East  Level FlightAware
Sun 11:33:14 PM 59.9831 -8.9743 83° East 504 580 41,000  Level FlightAware
Sun 11:33:45 PM 59.9867 -8.8355 87° East 504 580 41,000  Level FlightAware
Sun 11:34:15 PM 59.9922 -8.6916 86° East 504 580 41,000  Level FlightAware
Sun 11:34:45 PM 59.9981 -8.5460 85° East 504 580 41,000  Level FlightAware
Sun 11:35:15 PM 60.0033 -8.3997 86° East 506 582 41,000  Level FlightAware
Sun 11:35:45 PM 60.0074 -8.2562 87° East 504 580 41,000  Level FlightAware
Sun 11:36:15 PM 60.0113 -8.1127 87° East 506 582 41,000  Level FlightAware
Sun 11:36:45 PM 60.0151 -7.9701 87° East 504 580 41,000  Level FlightAware
Sun 11:37:21 PM 60.0200 -7.7986 87° East 506 582 41,000  Level FlightAware
Sun 11:37:51 PM 60.0236 -7.6547 87° East 506 582 41,000  Level FlightAware
Sun 11:38:21 PM 60.0270 -7.5123 87° East 502 578 41,000  Level FlightAware
Sun 11:38:57 PM 60.0305 -7.3416 88° East 508 585 41,000  Level FlightAware
Sun 11:39:33 PM 60.0341 -7.1708 88° East 506 582 41,000  Level FlightAware
Sun 11:40:03 PM 60.0371 -7.0292 87° East 506 582 41,000  Level FlightAware
Sun 11:40:33 PM 60.0399 -6.8879 88° East 502 578 41,000  Level FlightAware
Sun 11:41:03 PM 60.0425 -6.7457 88° East 508 585 41,000  Level FlightAware
Sun 11:41:33 PM 60.0450 -6.6044 88° East 506 582 41,000  Level FlightAware
Sun 11:42:03 PM 60.0477 -6.4636 88° East 506 582 41,000  Level FlightAware
Sun 11:42:33 PM 60.0497 -6.3232 88° East 504 580 41,000  Level FlightAware
Sun 11:43:04 PM 60.0516 -6.1821 88° East 506 582 41,000  Level FlightAware
Sun 11:43:39 PM 60.0538 -6.0147 88° East 506 582 41,000  Level FlightAware
Sun 11:44:10 PM 60.0557 -5.8736 88° East 502 578 41,000  Level FlightAware
Sun 11:44:40 PM 60.0571 -5.7332 89° East 502 578 41,000  Level FlightAware
Sun 11:45:10 PM 60.0583 -5.5916 89° East 508 585 41,000  Level FlightAware
Sun 11:45:40 PM 60.0596 -5.4464 89° East 512 589 41,000  Level FlightAware
Sun 11:46:10 PM 60.0608 -5.3027 89° East 508 585 41,000  Level FlightAware
Sun 11:46:46 PM 60.0620 -5.1345 89° East 504 580 41,000  Level FlightAware
Sun 11:47:16 PM 60.0626 -4.9930 89° East 504 580 41,000  Level FlightAware
Sun 11:47:52 PM 60.0631 -4.8254 90° East 506 582 41,000  Level FlightAware
Sun 11:48:22 PM 60.0635 -4.6848 90° East 506 582 41,000  Level FlightAware
Sun 11:48:52 PM 60.0639 -4.5442 90° East 506 582 41,000  Level FlightAware
Sun 11:49:22 PM 60.0640 -4.4033 90° East 504 580 41,000  Level FlightAware
Sun 11:49:52 PM 60.0638 -4.2637 90° East 504 580 41,000  Level FlightAware
Sun 11:50:28 PM 60.0635 -4.0960 90° East 504 580 41,000  Level FlightAware
Sun 11:50:58 PM 60.0632 -3.9551 90° East 508 585 41,000  Level FlightAware
Sun 11:51:28 PM 60.0628 -3.8149 90° East 508 585 41,000  Level FlightAware
Sun 11:51:58 PM 60.0621 -3.6739 91° East 504 580 41,000  Level FlightAware
Sun 11:52:29 PM 60.0612 -3.5330 91° East 506 582 41,000  Level FlightAware
Sun 11:53:04 PM 60.0600 -3.3675 91° East 502 578 41,000  Level FlightAware
Sun 11:53:34 PM 60.0589 -3.2273 91° East 504 580 41,000  Level FlightAware
Sun 11:54:04 PM 60.0578 -3.0875 91° East 506 582 41,000  Level FlightAware
Sun 11:54:34 PM 60.0563 -2.9471 91° East 508 585 41,000  Level FlightAware
Sun 11:55:05 PM 60.0547 -2.8057 91° East 508 585 41,000  Level FlightAware
Sun 11:55:35 PM 60.0529 -2.6659 91° East 504 580 41,000  Level FlightAware
Sun 11:56:05 PM 60.0511 -2.5270 91° East 502 578 41,000  Level FlightAware
Sun 11:56:35 PM 60.0492 -2.3885 91° East 506 582 41,000  Level FlightAware
Sun 11:57:05 PM 60.0470 -2.2482 92° East 506 582 41,000  Level FlightAware
Sun 11:57:35 PM 60.0446 -2.1063 92° East 508 585 41,000  Level FlightAware
Sun 11:58:11 PM 60.0417 -1.9415 92° East 506 582 41,000  Level FlightAware
Sun 11:58:47 PM 60.0387 -1.7745 92° East 504 580 41,000  Level FlightAware
Sun 11:59:17 PM 60.0357 -1.6353 92° East 504 580 41,000  Level FlightAware
Sun 11:59:47 PM 60.0329 -1.4941 92° East 508 585 41,000  Level FlightAware
Mon 12:00:17 AM 60.0298 -1.3533 92° East 506 582 41,000  Level FlightAware
Mon 12:00:53 AM 60.0262 -1.1854 92° East 506 582 41,000  Level FlightAware
Mon 12:01:29 AM 60.0219 -1.0168 93° East 502 578 41,000  Level FlightAware
Mon 12:01:59 AM 60.0180 -0.8746 93° East 506 582 41,000  Level FlightAware
Mon 12:02:35 AM 60.0133 -0.7053 93° East 508 585 41,000  Level FlightAware
Mon 12:03:11 AM 60.0085 -0.5382 93° East 506 582 41,000  Level FlightAware
Mon 12:03:41 AM 60.0046 -0.3984 93° East 506 582 41,000  Level FlightAware
Mon 12:04:11 AM 60.0001 -0.2577 94° East 504 580 41,000  Level FlightAware
Mon 12:04:42 AM 59.9958 -0.1180 94° East 502 578 41,000  Level FlightAware
Mon 12:05:17 AM 59.9954 0.0494 90° East 506 582 41,000  Level FlightAware
Mon 12:05:47 AM 60.0053 0.1889 82° East 508 585 41,000  Level FlightAware
Mon 12:06:23 AM 60.0184 0.3551 81° East 506 582 41,000  Level FlightAware
Mon 12:06:54 AM 60.0296 0.4958 81° East 504 580 41,000  Level FlightAware
Mon 12:07:24 AM 60.0404 0.6349 81° East 504 580 41,000  Level FlightAware
Mon 12:07:59 AM 60.0499 0.8023 83° East 506 582 41,000  Level FlightAware
Mon 12:08:30 AM 60.0578 0.9447 84° East 510 587 41,000  Level FlightAware
Mon 12:09:00 AM 60.0652 1.0848 84° East 504 580 41,000  Level FlightAware
Mon 12:09:30 AM 60.0724 1.2248 84° East 504 580 41,000  Level FlightAware
Mon 12:10:00 AM 60.0797 1.3656 84° East 504 580 41,000  Level FlightAware
Mon 12:10:36 AM 60.0885 1.5330 84° East 506 582 41,000  Level FlightAware
Mon 12:11:06 AM 60.0958 1.6747 84° East 506 582 41,000  Level FlightAware
Mon 12:11:36 AM 60.1026 1.8167 84° East 504 580 41,000  Level FlightAware
Mon 12:12:12 AM 60.1104 1.9849 85° East 506 582 41,000  Level FlightAware
Mon 12:12:42 AM 60.1167 2.1265 85° East 506 582 41,000  Level FlightAware
Mon 12:13:12 AM 60.1233 2.2668 85° East 508 585 41,000  Level FlightAware
Mon 12:13:42 AM 60.1293 2.4063 85° East 502 578 41,000  Level FlightAware
Mon 12:14:12 AM 60.1352 2.5454 85° East 504 580 41,000  Level FlightAware
Mon 12:14:48 AM 60.1430 2.7133 85° East 506 582 41,000  Level FlightAware
Mon 12:15:18 AM 60.1479 2.8542 86° East 504 580 41,000  Level FlightAware
Mon 12:15:48 AM 60.1529 2.9953 86° East 508 585 41,000  Level FlightAware
Mon 12:16:18 AM 60.1579 3.1360 86° East 506 582 41,000  Level FlightAware
Mon 12:16:48 AM 60.1633 3.2766 86° East 502 578 41,000  Level FlightAware
Mon 12:18:00 AM 60.1993 3.6103 78° East  Level FlightAware
Mon 12:25:00 AM 60.3925 5.5709 78° East  Level FlightAware
Mon 12:26:00 AM 60.4177 5.8528 80° East  Level FlightAware
Mon 12:27:00 AM 60.4423 6.1352 80° East  Level FlightAware
Mon 12:28:00 AM 60.4664 6.4180 80° East  Level FlightAware
Mon 12:29:00 AM 60.4898 6.7011 80° East  Level FlightAware
Mon 12:30:00 AM 60.5126 6.9847 81° East  Level FlightAware
Mon 12:31:00 AM 60.5349 7.2687 81° East  Level FlightAware
Mon 12:32:00 AM 60.5565 7.5531 81° East  Level FlightAware
Mon 12:33:00 AM 60.5775 7.8379 81° East  Level FlightAware
Mon 12:34:00 AM 60.5979 8.1230 82° East  Level FlightAware
Mon 12:35:00 AM 60.6177 8.4084 82° East  Level FlightAware
Mon 12:36:00 AM 60.6370 8.6943 82° East  Level FlightAware
Mon 12:37:00 AM 60.6555 8.9804 82° East  Level FlightAware
Mon 12:38:00 AM 60.6735 9.2669 83° East  Level FlightAware
Mon 12:39:00 AM 60.6909 9.5537 83° East  Level FlightAware
Mon 12:40:00 AM 60.7076 9.8408 83° East  Level FlightAware
Mon 12:41:00 AM 60.7210 10.1418 86° East  Level FlightAware
Mon 12:42:00 AM 60.7295 10.4307 86° East  Level FlightAware
Mon 12:43:00 AM 60.7373 10.7197 87° East  Level FlightAware
Mon 12:44:00 AM 60.7445 11.0088 87° East  Level FlightAware
Mon 12:45:00 AM 60.7510 11.2980 87° East  Level FlightAware
Mon 12:46:00 AM 60.7570 11.5874 87° East  Level FlightAware
Mon 12:47:00 AM 60.7623 11.8769 88° East  Level FlightAware
Mon 12:48:00 AM 60.7670 12.1664 88° East  Level FlightAware
Mon 12:49:00 AM 60.7710 12.4561 88° East  Level FlightAware
Mon 12:50:00 AM 60.7745 12.7458 88° East  Level FlightAware
Mon 12:51:00 AM 60.7773 13.0356 89° East  Level FlightAware
Mon 12:52:00 AM 60.7795 13.3254 89° East  Level FlightAware
Mon 12:53:00 AM 60.7811 13.6152 89° East  Level FlightAware
Mon 12:54:00 AM 60.7820 13.9051 89° East  Level FlightAware
Mon 12:55:00 AM 60.7824 14.1950 90° East  Level FlightAware
Mon 12:56:00 AM 60.7821 14.4848 90° East  Level FlightAware
Mon 12:57:00 AM 60.7811 14.7747 90° East  Level FlightAware
Mon 12:58:00 AM 60.7796 15.0645 91° East  Level FlightAware
Mon 12:59:00 AM 60.7774 15.3544 91° East  Level FlightAware
Mon 01:00:00 AM 60.7746 15.6441 91° East  Level FlightAware
Mon 01:01:00 AM 60.7712 15.9338 91° East  Level FlightAware
Mon 01:02:00 AM 60.7672 16.2235 92° East  Level FlightAware
Mon 01:03:00 AM 60.7625 16.5130 92° East  Level FlightAware
Mon 01:04:00 AM 60.7572 16.8025 92° East  Level FlightAware
Mon 01:05:00 AM 60.7513 17.0919 92° East  Level FlightAware
Mon 01:06:00 AM 60.7447 17.3811 93° East  Level FlightAware
Mon 01:07:00 AM 60.7376 17.6703 93° East  Level FlightAware
Mon 01:08:00 AM 60.7298 17.9593 93° East  Level FlightAware
Mon 01:09:00 AM 60.7214 18.2481 93° East  Level FlightAware
Mon 01:10:00 AM 60.7123 18.5368 94° East  Level FlightAware
Mon 01:11:00 AM 60.7027 18.8253 94° East  Level FlightAware
Mon 01:12:00 AM 60.6924 19.1137 94° East  Level FlightAware
Mon 01:13:00 AM 60.6815 19.4018 94° East  Level FlightAware
Mon 01:14:00 AM 60.6700 19.6898 95° East  Level FlightAware
Mon 01:15:00 AM 60.6579 19.9776 95° East  Level FlightAware
Mon 01:16:00 AM 60.6452 20.2651 95° East  Level FlightAware
Mon 01:17:00 AM 60.6318 20.5524 95° East  Level FlightAware
Mon 01:18:00 AM 60.6179 20.8394 96° East  Level FlightAware
Mon 01:19:00 AM 60.6033 21.1262 96° East  Level FlightAware
Mon 01:20:00 AM 60.5881 21.4128 96° East  Level FlightAware
Mon 01:21:00 AM 60.5723 21.6990 96° East  Level FlightAware
Mon 01:22:00 AM 60.5558 21.9850 97° East  Level FlightAware
Mon 01:23:00 AM 60.5388 22.2707 97° East  Level FlightAware
Mon 01:24:00 AM 60.5212 22.5560 97° East  Level FlightAware
Mon 01:25:00 AM 60.5029 22.8411 97° East  Level FlightAware
Mon 01:26:00 AM 60.4841 23.1258 98° East  Level FlightAware
Mon 01:27:00 AM 60.4646 23.4102 98° East  Level FlightAware
Mon 01:28:00 AM 60.4445 23.6943 98° East  Level FlightAware
Mon 01:29:00 AM 60.4239 23.9780 98° East  Level FlightAware
Mon 01:30:00 AM 60.4026 24.2613 99° East  Level FlightAware
Mon 01:31:00 AM 60.3807 24.5443 99° East  Level FlightAware
Mon 01:32:00 AM 60.3582 24.8268 99° East  Level FlightAware
Mon 01:33:00 AM 60.3352 25.1090 99° East  Level FlightAware
Mon 01:34:00 AM 60.3115 25.3908 100° East  Level FlightAware
Mon 01:35:00 AM 60.2872 25.6721 100° East  Level FlightAware
Mon 01:36:00 AM 60.2599 25.9521 101° East  Level FlightAware
Mon 01:37:00 AM 60.2328 26.2319 101° East  Level FlightAware
Mon 01:38:00 AM 60.2081 26.5124 99° East  Level FlightAware
Mon 01:39:00 AM 60.1834 26.7927 101° East  Level FlightAware
Mon 01:40:00 AM 60.1520 27.0697 106° East  Level FlightAware
Mon 01:41:00 AM 60.1209 27.3470 102° East  Level FlightAware
Mon 01:42:00 AM 60.0915 27.6246 100° East  Level FlightAware
Mon 01:43:00 AM 60.0653 27.9034 101° East  Level FlightAware
Mon 01:44:00 AM 60.0384 28.1817 101° East  Level FlightAware
Mon 01:45:00 AM 60.0110 28.4595 101° East  Level FlightAware
Mon 01:46:00 AM 59.9828 28.7368 107° East  Level FlightAware
Mon 01:47:00 AM 59.9423 29.0076 107° East  Level FlightAware
Mon 01:48:00 AM 59.9078 29.2813 103° East  Level FlightAware
Mon 01:49:00 AM 59.8761 29.5562 101° East  Level FlightAware
Mon 01:50:00 AM 59.8483 29.8325 102° East  Level FlightAware
Mon 01:51:00 AM 59.8192 30.1081 101° East  Level FlightAware
Mon 01:52:00 AM 59.8003 30.2625 101° East  Level Estimated
Mon 01:53:00 AM 59.8003 30.2625 101° East  Level Estimated
Mon 01:54:00 AM 59.8003 30.2625 101° East  Level Estimated
Mon 01:55:00 AM 59.8003 30.2625 101° East  Level Estimated
Mon 01:56:00 AM 59.8003 30.2625 101° East  Level Estimated
Mon 01:57:00 AM 59.8003 30.2625 101° East  Level Estimated
Mon 01:58:00 AM 59.8003 30.2625 101° East  Level Estimated
Mon 01:59:00 AM 59.8003 30.2625 101° East  Level Estimated
Mon 02:00:00 AM 59.8003 30.2625 101° East  Level Estimated
Mon 02:01:00 AM 59.8003 30.2625 101° East  Level Estimated
Mon 02:02:00 AM 59.8003 30.2625 101° East  Level Estimated
Mon 02:03:00 AM 59.8003 30.2625 101° East  Level Estimated
Mon 02:04:00 AM 59.8003 30.2625 101° East  Level Estimated
Mon 02:05:00 AM 59.8003 30.2625 101° East  Level Estimated
Mon 02:06:00 AM 59.8003 30.2625 101° East  Level Estimated
Mon 02:07:00 AM 59.8003 30.2625 101° East  Level Estimated
Mon 02:08:00 AM 59.8003 30.2625 101° East  Level Estimated
Mon 02:09:00 AM 59.8003 30.2625 101° East  Level Estimated
Mon 02:10:00 AM 59.8003 30.2625 101° East  Level Estimated
Mon 02:11:00 AM 59.8003 30.2625 101° East  Level Estimated
Mon 02:12:00 AM 59.8003 30.2625 101° East  Level Estimated
Mon 02:13:00 AM 59.8003 30.2625 101° East  Level Estimated
Mon 02:14:00 AM 59.8003 30.2625 101° East  Level Estimated
Mon 02:15:00 AM 59.8003 30.2625 101° East  Level Estimated
Mon 02:16:00 AM 59.8003 30.2625 101° East  Level Estimated
Mon 02:17:00 AM 59.8003 30.2625 101° East  Level Estimated
Mon 02:18:00 AM 59.8003 30.2625 101° East  Level Estimated
Mon 02:19:00 AM 59.8003 30.2625 101° East  Level Estimated
Mon 02:20:00 AM 59.8003 30.2625 101° East  Level Estimated
Mon 02:21:00 AM 59.8003 30.2625 101° East  Level Estimated
Mon 02:22:00 AM 59.8003 30.2625 101° East  Level Estimated
Mon 02:23:00 AM 59.8003 30.2625 101° East  Level Estimated
Mon 02:24:00 AM 59.8003 30.2625 101° East  Level Estimated
Mon 02:25:00 AM 59.8003 30.2625 101° East  Level Estimated
Mon 02:26:00 AM 59.8003 30.2625 101° East  Level Estimated

Login

Don't have an account? Register now (free) for customized features, flight alerts, and more!